sensor_id;sensor_type;location;lat;lon;timestamp;P1;durP1;ratioP1;P2;durP2;ratioP2
41512;SDS011;27244;59.940;30.280;2022-12-05T00:00:50;26.52;;;22.90;;
41512;SDS011;27244;59.940;30.280;2022-12-05T00:03:18;24.73;;;22.05;;
41512;SDS011;27244;59.940;30.280;2022-12-05T00:05:45;25.60;;;22.77;;
41512;SDS011;27244;59.940;30.280;2022-12-05T00:08:12;25.75;;;23.05;;
41512;SDS011;27244;59.940;30.280;2022-12-05T00:10:39;24.83;;;22.02;;
41512;SDS011;27244;59.940;30.280;2022-12-05T00:13:07;22.85;;;19.98;;
41512;SDS011;27244;59.940;30.280;2022-12-05T00:15:36;23.85;;;21.25;;
41512;SDS011;27244;59.940;30.280;2022-12-05T00:18:04;26.50;;;22.95;;
41512;SDS011;27244;59.940;30.280;2022-12-05T00:20:31;23.85;;;21.33;;
41512;SDS011;27244;59.940;30.280;2022-12-05T00:22:58;21.33;;;19.05;;
41512;SDS011;27244;59.940;30.280;2022-12-05T00:25:25;23.48;;;20.98;;
41512;SDS011;27244;59.940;30.280;2022-12-05T00:27:52;24.42;;;21.83;;
41512;SDS011;27244;59.940;30.280;2022-12-05T00:30:19;22.45;;;19.27;;
41512;SDS011;27244;59.940;30.280;2022-12-05T00:32:48;21.08;;;18.27;;
41512;SDS011;27244;59.940;30.280;2022-12-05T00:35:15;20.35;;;17.98;;
41512;SDS011;27244;59.940;30.280;2022-12-05T00:37:42;22.73;;;18.35;;
41512;SDS011;27244;59.940;30.280;2022-12-05T00:40:11;20.52;;;18.33;;
41512;SDS011;27244;59.940;30.280;2022-12-05T00:42:38;21.90;;;17.65;;
41512;SDS011;27244;59.940;30.280;2022-12-05T00:45:06;22.25;;;18.40;;
41512;SDS011;27244;59.940;30.280;2022-12-05T00:47:34;18.45;;;16.42;;
41512;SDS011;27244;59.940;30.280;2022-12-05T00:50:02;20.95;;;16.98;;
41512;SDS011;27244;59.940;30.280;2022-12-05T00:52:30;19.88;;;15.90;;
41512;SDS011;27244;59.940;30.280;2022-12-05T00:54:56;16.88;;;15.10;;
41512;SDS011;27244;59.940;30.280;2022-12-05T00:57:23;17.55;;;15.15;;
41512;SDS011;27244;59.940;30.280;2022-12-05T00:59:51;15.80;;;14.13;;
41512;SDS011;27244;59.940;30.280;2022-12-05T01:02:18;18.63;;;14.40;;
41512;SDS011;27244;59.940;30.280;2022-12-05T01:04:45;15.77;;;13.90;;
41512;SDS011;27244;59.940;30.280;2022-12-05T01:07:14;15.38;;;13.52;;
41512;SDS011;27244;59.940;30.280;2022-12-05T01:09:40;15.07;;;13.48;;
41512;SDS011;27244;59.940;30.280;2022-12-05T01:12:07;14.68;;;12.85;;
41512;SDS011;27244;59.940;30.280;2022-12-05T01:14:34;14.15;;;12.50;;
41512;SDS011;27244;59.940;30.280;2022-12-05T01:17:01;14.55;;;12.25;;
41512;SDS011;27244;59.940;30.280;2022-12-05T01:19:31;14.38;;;12.32;;
41512;SDS011;27244;59.940;30.280;2022-12-05T01:21:59;13.88;;;12.32;;
41512;SDS011;27244;59.940;30.280;2022-12-05T01:24:27;14.05;;;12.15;;
41512;SDS011;27244;59.940;30.280;2022-12-05T01:26:55;14.35;;;12.85;;
41512;SDS011;27244;59.940;30.280;2022-12-05T01:29:23;12.38;;;11.07;;
41512;SDS011;27244;59.940;30.280;2022-12-05T01:31:50;16.30;;;11.32;;
41512;SDS011;27244;59.940;30.280;2022-12-05T01:34:17;13.63;;;10.88;;
41512;SDS011;27244;59.940;30.280;2022-12-05T01:36:44;13.02;;;10.63;;
41512;SDS011;27244;59.940;30.280;2022-12-05T01:39:11;12.65;;;9.98;;
41512;SDS011;27244;59.940;30.280;2022-12-05T01:41:41;12.15;;;10.70;;
41512;SDS011;27244;59.940;30.280;2022-12-05T01:47:09;12.95;;;9.90;;
41512;SDS011;27244;59.940;30.280;2022-12-05T01:49:37;11.30;;;10.10;;
41512;SDS011;27244;59.940;30.280;2022-12-05T01:52:07;11.18;;;9.93;;
41512;SDS011;27244;59.940;30.280;2022-12-05T01:54:40;11.77;;;8.70;;
41512;SDS011;27244;59.940;30.280;2022-12-05T01:57:10;12.25;;;9.45;;
41512;SDS011;27244;59.940;30.280;2022-12-05T01:59:40;10.60;;;8.55;;
41512;SDS011;27244;59.940;30.280;2022-12-05T02:02:13;10.70;;;8.75;;
41512;SDS011;27244;59.940;30.280;2022-12-05T02:04:42;11.38;;;9.70;;
41512;SDS011;27244;59.940;30.280;2022-12-05T02:07:15;9.50;;;8.43;;
41512;SDS011;27244;59.940;30.280;2022-12-05T02:09:43;8.52;;;7.65;;
41512;SDS011;27244;59.940;30.280;2022-12-05T02:12:12;11.60;;;8.70;;
41512;SDS011;27244;59.940;30.280;2022-12-05T02:14:41;9.40;;;8.38;;
41512;SDS011;27244;59.940;30.280;2022-12-05T02:17:17;10.57;;;8.35;;
41512;SDS011;27244;59.940;30.280;2022-12-05T02:19:59;9.10;;;8.13;;
41512;SDS011;27244;59.940;30.280;2022-12-05T02:25:54;10.00;;;8.20;;
41512;SDS011;27244;59.940;30.280;2022-12-05T02:28:54;9.90;;;8.02;;
41512;SDS011;27244;59.940;30.280;2022-12-05T02:31:41;8.80;;;7.53;;
41512;SDS011;27244;59.940;30.280;2022-12-05T02:34:18;8.57;;;7.68;;
41512;SDS011;27244;59.940;30.280;2022-12-05T02:36:53;8.30;;;7.50;;
41512;SDS011;27244;59.940;30.280;2022-12-05T02:39:28;8.77;;;7.30;;
41512;SDS011;27244;59.940;30.280;2022-12-05T02:42:02;8.77;;;7.25;;
41512;SDS011;27244;59.940;30.280;2022-12-05T02:44:36;8.00;;;7.07;;
41512;SDS011;27244;59.940;30.280;2022-12-05T02:47:09;8.88;;;7.15;;
41512;SDS011;27244;59.940;30.280;2022-12-05T02:49:39;7.13;;;6.38;;
41512;SDS011;27244;59.940;30.280;2022-12-05T02:52:09;7.57;;;6.70;;
41512;SDS011;27244;59.940;30.280;2022-12-05T02:54:43;8.55;;;6.82;;
41512;SDS011;27244;59.940;30.280;2022-12-05T02:57:13;7.88;;;6.40;;
41512;SDS011;27244;59.940;30.280;2022-12-05T02:59:42;7.00;;;6.30;;
41512;SDS011;27244;59.940;30.280;2022-12-05T03:02:20;7.97;;;6.38;;
41512;SDS011;27244;59.940;30.280;2022-12-05T03:04:49;8.45;;;6.80;;
41512;SDS011;27244;59.940;30.280;2022-12-05T03:07:16;6.57;;;5.85;;
41512;SDS011;27244;59.940;30.280;2022-12-05T03:09:48;6.97;;;6.20;;
41512;SDS011;27244;59.940;30.280;2022-12-05T03:12:21;8.70;;;6.63;;
41512;SDS011;27244;59.940;30.280;2022-12-05T03:14:51;7.30;;;6.55;;
41512;SDS011;27244;59.940;30.280;2022-12-05T03:17:27;6.55;;;5.68;;
41512;SDS011;27244;59.940;30.280;2022-12-05T03:19:59;6.82;;;5.80;;
41512;SDS011;27244;59.940;30.280;2022-12-05T03:22:31;7.72;;;6.10;;
41512;SDS011;27244;59.940;30.280;2022-12-05T03:25:03;6.75;;;6.05;;
41512;SDS011;27244;59.940;30.280;2022-12-05T03:27:32;8.68;;;5.70;;
41512;SDS011;27244;59.940;30.280;2022-12-05T03:30:07;7.28;;;5.93;;
41512;SDS011;27244;59.940;30.280;2022-12-05T03:32:38;7.13;;;5.80;;
41512;SDS011;27244;59.940;30.280;2022-12-05T03:35:12;7.10;;;5.07;;
41512;SDS011;27244;59.940;30.280;2022-12-05T03:37:44;6.40;;;5.35;;
41512;SDS011;27244;59.940;30.280;2022-12-05T03:40:20;7.32;;;5.45;;
41512;SDS011;27244;59.940;30.280;2022-12-05T03:42:56;6.97;;;5.75;;
41512;SDS011;27244;59.940;30.280;2022-12-05T03:45:30;7.75;;;5.40;;
41512;SDS011;27244;59.940;30.280;2022-12-05T03:48:08;6.97;;;5.25;;
41512;SDS011;27244;59.940;30.280;2022-12-05T03:50:40;7.32;;;5.22;;
41512;SDS011;27244;59.940;30.280;2022-12-05T03:53:13;5.38;;;4.55;;
41512;SDS011;27244;59.940;30.280;2022-12-05T03:55:43;7.07;;;4.72;;
41512;SDS011;27244;59.940;30.280;2022-12-05T03:58:16;6.97;;;5.40;;
41512;SDS011;27244;59.940;30.280;2022-12-05T04:00:48;8.77;;;4.95;;
41512;SDS011;27244;59.940;30.280;2022-12-05T04:03:21;6.07;;;4.60;;
41512;SDS011;27244;59.940;30.280;2022-12-05T04:05:53;6.00;;;4.78;;
41512;SDS011;27244;59.940;30.280;2022-12-05T04:08:24;6.15;;;5.13;;
41512;SDS011;27244;59.940;30.280;2022-12-05T04:10:54;5.95;;;5.18;;
41512;SDS011;27244;59.940;30.280;2022-12-05T04:13:28;6.70;;;5.22;;
41512;SDS011;27244;59.940;30.280;2022-12-05T04:16:00;5.50;;;4.82;;
41512;SDS011;27244;59.940;30.280;2022-12-05T04:18:51;6.97;;;4.85;;
41512;SDS011;27244;59.940;30.280;2022-12-05T04:21:24;5.78;;;4.32;;
41512;SDS011;27244;59.940;30.280;2022-12-05T04:24:04;6.00;;;4.45;;
41512;SDS011;27244;59.940;30.280;2022-12-05T04:26:52;5.80;;;4.57;;
41512;SDS011;27244;59.940;30.280;2022-12-05T04:29:26;5.28;;;4.30;;
41512;SDS011;27244;59.940;30.280;2022-12-05T04:31:57;5.43;;;4.57;;
41512;SDS011;27244;59.940;30.280;2022-12-05T04:34:35;6.13;;;4.32;;
41512;SDS011;27244;59.940;30.280;2022-12-05T04:37:05;6.70;;;4.50;;
41512;SDS011;27244;59.940;30.280;2022-12-05T04:39:39;6.32;;;4.53;;
41512;SDS011;27244;59.940;30.280;2022-12-05T04:42:13;6.10;;;4.60;;
41512;SDS011;27244;59.940;30.280;2022-12-05T04:44:44;6.30;;;4.30;;
41512;SDS011;27244;59.940;30.280;2022-12-05T04:47:16;5.93;;;4.60;;
41512;SDS011;27244;59.940;30.280;2022-12-05T04:49:48;4.32;;;3.90;;
41512;SDS011;27244;59.940;30.280;2022-12-05T04:52:16;4.85;;;3.95;;
41512;SDS011;27244;59.940;30.280;2022-12-05T04:54:45;6.85;;;4.80;;
41512;SDS011;27244;59.940;30.280;2022-12-05T04:57:16;7.45;;;4.40;;
41512;SDS011;27244;59.940;30.280;2022-12-05T04:59:47;6.82;;;4.50;;
41512;SDS011;27244;59.940;30.280;2022-12-05T05:02:16;6.30;;;4.15;;
41512;SDS011;27244;59.940;30.280;2022-12-05T05:04:46;5.60;;;4.30;;
41512;SDS011;27244;59.940;30.280;2022-12-05T05:07:18;5.30;;;4.60;;
41512;SDS011;27244;59.940;30.280;2022-12-05T05:09:46;6.85;;;4.47;;
41512;SDS011;27244;59.940;30.280;2022-12-05T05:12:16;6.80;;;4.47;;
41512;SDS011;27244;59.940;30.280;2022-12-05T05:14:43;7.07;;;4.88;;
41512;SDS011;27244;59.940;30.280;2022-12-05T05:17:10;6.82;;;4.90;;
41512;SDS011;27244;59.940;30.280;2022-12-05T05:19:37;7.15;;;5.10;;
41512;SDS011;27244;59.940;30.280;2022-12-05T05:22:05;6.60;;;4.75;;
41512;SDS011;27244;59.940;30.280;2022-12-05T05:24:32;9.55;;;5.25;;
41512;SDS011;27244;59.940;30.280;2022-12-05T05:26:59;7.93;;;5.15;;
41512;SDS011;27244;59.940;30.280;2022-12-05T05:29:26;9.10;;;5.28;;
41512;SDS011;27244;59.940;30.280;2022-12-05T05:31:53;8.90;;;5.93;;
41512;SDS011;27244;59.940;30.280;2022-12-05T05:34:20;9.35;;;5.47;;
41512;SDS011;27244;59.940;30.280;2022-12-05T05:36:50;12.57;;;5.28;;
41512;SDS011;27244;59.940;30.280;2022-12-05T05:39:19;10.10;;;5.20;;
41512;SDS011;27244;59.940;30.280;2022-12-05T05:41:45;14.52;;;5.75;;
41512;SDS011;27244;59.940;30.280;2022-12-05T05:44:12;10.95;;;5.35;;
41512;SDS011;27244;59.940;30.280;2022-12-05T05:46:39;7.38;;;5.30;;
41512;SDS011;27244;59.940;30.280;2022-12-05T05:49:06;9.95;;;5.55;;
41512;SDS011;27244;59.940;30.280;2022-12-05T05:51:33;7.05;;;4.93;;
41512;SDS011;27244;59.940;30.280;2022-12-05T05:54:00;7.95;;;5.28;;
41512;SDS011;27244;59.940;30.280;2022-12-05T05:56:29;5.75;;;4.70;;
41512;SDS011;27244;59.940;30.280;2022-12-05T05:58:56;6.68;;;4.80;;
41512;SDS011;27244;59.940;30.280;2022-12-05T06:01:25;8.20;;;4.95;;
41512;SDS011;27244;59.940;30.280;2022-12-05T06:03:53;7.10;;;5.15;;
41512;SDS011;27244;59.940;30.280;2022-12-05T06:06:20;6.80;;;5.03;;
41512;SDS011;27244;59.940;30.280;2022-12-05T06:08:47;6.60;;;5.10;;
41512;SDS011;27244;59.940;30.280;2022-12-05T06:11:15;9.32;;;4.43;;
41512;SDS011;27244;59.940;30.280;2022-12-05T06:13:45;6.80;;;4.45;;
41512;SDS011;27244;59.940;30.280;2022-12-05T06:16:13;7.88;;;4.72;;
41512;SDS011;27244;59.940;30.280;2022-12-05T06:18:41;5.85;;;4.60;;
41512;SDS011;27244;59.940;30.280;2022-12-05T06:21:08;8.43;;;5.22;;
41512;SDS011;27244;59.940;30.280;2022-12-05T06:23:36;6.88;;;4.60;;
41512;SDS011;27244;59.940;30.280;2022-12-05T06:26:04;7.22;;;4.43;;
41512;SDS011;27244;59.940;30.280;2022-12-05T06:28:32;6.70;;;5.40;;
41512;SDS011;27244;59.940;30.280;2022-12-05T06:31:05;8.52;;;5.43;;
41512;SDS011;27244;59.940;30.280;2022-12-05T06:33:33;8.13;;;4.93;;
41512;SDS011;27244;59.940;30.280;2022-12-05T06:36:00;8.32;;;5.55;;
41512;SDS011;27244;59.940;30.280;2022-12-05T06:38:28;7.22;;;5.35;;
41512;SDS011;27244;59.940;30.280;2022-12-05T06:40:55;6.85;;;5.20;;
41512;SDS011;27244;59.940;30.280;2022-12-05T06:43:22;7.75;;;5.68;;
41512;SDS011;27244;59.940;30.280;2022-12-05T06:45:49;10.05;;;5.75;;
41512;SDS011;27244;59.940;30.280;2022-12-05T06:48:17;14.07;;;6.28;;
41512;SDS011;27244;59.940;30.280;2022-12-05T06:50:48;14.38;;;6.13;;
41512;SDS011;27244;59.940;30.280;2022-12-05T06:53:16;9.90;;;5.50;;
41512;SDS011;27244;59.940;30.280;2022-12-05T06:55:44;10.40;;;5.57;;
41512;SDS011;27244;59.940;30.280;2022-12-05T06:58:20;8.57;;;5.15;;
41512;SDS011;27244;59.940;30.280;2022-12-05T07:00:47;8.50;;;5.43;;
41512;SDS011;27244;59.940;30.280;2022-12-05T07:03:33;8.63;;;5.53;;
41512;SDS011;27244;59.940;30.280;2022-12-05T07:06:00;8.90;;;5.55;;
41512;SDS011;27244;59.940;30.280;2022-12-05T07:08:27;11.50;;;6.03;;
41512;SDS011;27244;59.940;30.280;2022-12-05T07:10:54;7.78;;;5.88;;
41512;SDS011;27244;59.940;30.280;2022-12-05T07:13:21;7.35;;;5.15;;
41512;SDS011;27244;59.940;30.280;2022-12-05T07:15:48;7.75;;;5.68;;
41512;SDS011;27244;59.940;30.280;2022-12-05T07:18:16;8.10;;;5.80;;
41512;SDS011;27244;59.940;30.280;2022-12-05T07:20:54;7.90;;;5.55;;
41512;SDS011;27244;59.940;30.280;2022-12-05T07:23:21;9.63;;;5.47;;
41512;SDS011;27244;59.940;30.280;2022-12-05T07:25:48;7.85;;;6.07;;
41512;SDS011;27244;59.940;30.280;2022-12-05T07:28:16;7.22;;;5.30;;
41512;SDS011;27244;59.940;30.280;2022-12-05T07:30:43;9.23;;;6.15;;
41512;SDS011;27244;59.940;30.280;2022-12-05T07:33:09;9.65;;;5.68;;
41512;SDS011;27244;59.940;30.280;2022-12-05T07:35:37;8.40;;;5.70;;
41512;SDS011;27244;59.940;30.280;2022-12-05T07:38:07;7.80;;;5.45;;
41512;SDS011;27244;59.940;30.280;2022-12-05T07:40:36;8.43;;;5.90;;
41512;SDS011;27244;59.940;30.280;2022-12-05T07:43:03;8.95;;;5.38;;
41512;SDS011;27244;59.940;30.280;2022-12-05T07:45:30;9.45;;;6.03;;
41512;SDS011;27244;59.940;30.280;2022-12-05T07:47:59;8.98;;;5.40;;
41512;SDS011;27244;59.940;30.280;2022-12-05T07:50:26;7.53;;;5.85;;
41512;SDS011;27244;59.940;30.280;2022-12-05T07:52:53;8.43;;;5.57;;
41512;SDS011;27244;59.940;30.280;2022-12-05T07:55:21;8.55;;;5.85;;
41512;SDS011;27244;59.940;30.280;2022-12-05T07:57:48;9.27;;;5.93;;
41512;SDS011;27244;59.940;30.280;2022-12-05T08:00:15;7.25;;;5.18;;
41512;SDS011;27244;59.940;30.280;2022-12-05T08:02:43;6.80;;;5.53;;
41512;SDS011;27244;59.940;30.280;2022-12-05T08:05:10;8.50;;;5.60;;
41512;SDS011;27244;59.940;30.280;2022-12-05T08:07:37;9.82;;;6.07;;
41512;SDS011;27244;59.940;30.280;2022-12-05T08:10:04;7.75;;;5.60;;
41512;SDS011;27244;59.940;30.280;2022-12-05T08:12:34;9.85;;;6.00;;
41512;SDS011;27244;59.940;30.280;2022-12-05T08:15:02;9.25;;;5.85;;
41512;SDS011;27244;59.940;30.280;2022-12-05T08:17:32;8.18;;;5.80;;
41512;SDS011;27244;59.940;30.280;2022-12-05T08:19:59;9.02;;;5.53;;
41512;SDS011;27244;59.940;30.280;2022-12-05T08:22:26;9.30;;;6.03;;
41512;SDS011;27244;59.940;30.280;2022-12-05T08:24:53;11.38;;;5.95;;
41512;SDS011;27244;59.940;30.280;2022-12-05T08:27:23;10.60;;;6.25;;
41512;SDS011;27244;59.940;30.280;2022-12-05T08:29:52;9.02;;;6.20;;
41512;SDS011;27244;59.940;30.280;2022-12-05T08:32:19;8.43;;;6.10;;
41512;SDS011;27244;59.940;30.280;2022-12-05T08:34:46;9.30;;;5.78;;
41512;SDS011;27244;59.940;30.280;2022-12-05T08:37:13;8.90;;;6.65;;
41512;SDS011;27244;59.940;30.280;2022-12-05T08:39:42;7.43;;;5.22;;
41512;SDS011;27244;59.940;30.280;2022-12-05T08:42:09;13.18;;;6.25;;
41512;SDS011;27244;59.940;30.280;2022-12-05T08:44:36;10.40;;;7.07;;
41512;SDS011;27244;59.940;30.280;2022-12-05T08:47:04;11.10;;;7.10;;
41512;SDS011;27244;59.940;30.280;2022-12-05T08:49:31;10.00;;;7.40;;
41512;SDS011;27244;59.940;30.280;2022-12-05T08:51:58;12.13;;;8.40;;
41512;SDS011;27244;59.940;30.280;2022-12-05T08:54:26;12.30;;;8.88;;
41512;SDS011;27244;59.940;30.280;2022-12-05T08:56:56;12.35;;;8.93;;
41512;SDS011;27244;59.940;30.280;2022-12-05T08:59:23;13.15;;;9.68;;
41512;SDS011;27244;59.940;30.280;2022-12-05T09:01:50;15.82;;;9.85;;
41512;SDS011;27244;59.940;30.280;2022-12-05T09:04:19;15.20;;;9.55;;
41512;SDS011;27244;59.940;30.280;2022-12-05T09:06:48;14.68;;;10.30;;
41512;SDS011;27244;59.940;30.280;2022-12-05T09:09:18;13.55;;;10.27;;
41512;SDS011;27244;59.940;30.280;2022-12-05T09:11:45;15.05;;;10.70;;
41512;SDS011;27244;59.940;30.280;2022-12-05T09:14:15;18.00;;;11.35;;
41512;SDS011;27244;59.940;30.280;2022-12-05T09:16:42;14.43;;;9.98;;
41512;SDS011;27244;59.940;30.280;2022-12-05T09:19:11;13.70;;;10.20;;
41512;SDS011;27244;59.940;30.280;2022-12-05T09:21:44;15.30;;;9.45;;
41512;SDS011;27244;59.940;30.280;2022-12-05T09:24:13;12.90;;;9.30;;
41512;SDS011;27244;59.940;30.280;2022-12-05T09:26:40;13.38;;;9.48;;
41512;SDS011;27244;59.940;30.280;2022-12-05T09:29:07;13.02;;;9.25;;
41512;SDS011;27244;59.940;30.280;2022-12-05T09:31:34;14.00;;;9.77;;
41512;SDS011;27244;59.940;30.280;2022-12-05T09:34:02;12.50;;;9.43;;
41512;SDS011;27244;59.940;30.280;2022-12-05T09:36:49;13.57;;;9.77;;
41512;SDS011;27244;59.940;30.280;2022-12-05T09:39:18;12.30;;;9.43;;
41512;SDS011;27244;59.940;30.280;2022-12-05T09:42:28;16.15;;;10.73;;
41512;SDS011;27244;59.940;30.280;2022-12-05T09:45:08;15.32;;;10.55;;
41512;SDS011;27244;59.940;30.280;2022-12-05T09:47:45;15.43;;;11.73;;
41512;SDS011;27244;59.940;30.280;2022-12-05T09:50:20;14.40;;;10.10;;
41512;SDS011;27244;59.940;30.280;2022-12-05T09:55:41;15.27;;;11.32;;
41512;SDS011;27244;59.940;30.280;2022-12-05T09:58:15;15.10;;;11.82;;
41512;SDS011;27244;59.940;30.280;2022-12-05T10:00:58;16.42;;;11.32;;
41512;SDS011;27244;59.940;30.280;2022-12-05T10:03:31;16.05;;;11.30;;
41512;SDS011;27244;59.940;30.280;2022-12-05T10:06:05;16.92;;;12.27;;
41512;SDS011;27244;59.940;30.280;2022-12-05T10:08:42;15.57;;;12.05;;
41512;SDS011;27244;59.940;30.280;2022-12-05T10:11:25;14.98;;;11.38;;
41512;SDS011;27244;59.940;30.280;2022-12-05T10:14:01;15.80;;;12.10;;
41512;SDS011;27244;59.940;30.280;2022-12-05T10:16:37;16.10;;;12.82;;
41512;SDS011;27244;59.940;30.280;2022-12-05T10:21:40;17.75;;;13.95;;
41512;SDS011;27244;59.940;30.280;2022-12-05T10:24:14;16.27;;;13.50;;
41512;SDS011;27244;59.940;30.280;2022-12-05T10:26:50;15.25;;;12.52;;
41512;SDS011;27244;59.940;30.280;2022-12-05T10:29:22;17.13;;;13.73;;
41512;SDS011;27244;59.940;30.280;2022-12-05T10:31:54;15.45;;;12.40;;
41512;SDS011;27244;59.940;30.280;2022-12-05T10:34:28;16.10;;;13.00;;
41512;SDS011;27244;59.940;30.280;2022-12-05T10:36:59;16.05;;;14.00;;
41512;SDS011;27244;59.940;30.280;2022-12-05T10:39:36;16.08;;;13.02;;
41512;SDS011;27244;59.940;30.280;2022-12-05T10:42:05;17.00;;;13.50;;
41512;SDS011;27244;59.940;30.280;2022-12-05T10:44:37;16.50;;;12.65;;
41512;SDS011;27244;59.940;30.280;2022-12-05T10:47:05;15.85;;;13.15;;
41512;SDS011;27244;59.940;30.280;2022-12-05T10:49:32;15.95;;;13.13;;
41512;SDS011;27244;59.940;30.280;2022-12-05T10:52:00;16.48;;;12.88;;
41512;SDS011;27244;59.940;30.280;2022-12-05T10:54:28;14.93;;;12.75;;
41512;SDS011;27244;59.940;30.280;2022-12-05T10:56:59;14.90;;;12.75;;
41512;SDS011;27244;59.940;30.280;2022-12-05T10:59:42;14.02;;;12.20;;
41512;SDS011;27244;59.940;30.280;2022-12-05T11:02:16;14.80;;;12.05;;
41512;SDS011;27244;59.940;30.280;2022-12-05T11:04:50;15.27;;;12.82;;
41512;SDS011;27244;59.940;30.280;2022-12-05T11:07:23;15.73;;;12.07;;
41512;SDS011;27244;59.940;30.280;2022-12-05T11:09:54;14.48;;;11.90;;
41512;SDS011;27244;59.940;30.280;2022-12-05T11:12:23;13.55;;;11.38;;
41512;SDS011;27244;59.940;30.280;2022-12-05T11:17:23;12.80;;;11.32;;
41512;SDS011;27244;59.940;30.280;2022-12-05T11:19:51;13.60;;;11.18;;
41512;SDS011;27244;59.940;30.280;2022-12-05T11:22:18;13.15;;;11.07;;
41512;SDS011;27244;59.940;30.280;2022-12-05T11:24:47;13.40;;;11.70;;
41512;SDS011;27244;59.940;30.280;2022-12-05T11:27:18;12.48;;;11.18;;
41512;SDS011;27244;59.940;30.280;2022-12-05T11:29:56;11.82;;;10.52;;
41512;SDS011;27244;59.940;30.280;2022-12-05T11:32:26;12.98;;;11.55;;
41512;SDS011;27244;59.940;30.280;2022-12-05T11:34:56;13.70;;;11.75;;
41512;SDS011;27244;59.940;30.280;2022-12-05T11:37:34;13.68;;;11.05;;
41512;SDS011;27244;59.940;30.280;2022-12-05T11:40:14;12.15;;;10.68;;
41512;SDS011;27244;59.940;30.280;2022-12-05T11:42:45;12.40;;;10.35;;
41512;SDS011;27244;59.940;30.280;2022-12-05T11:45:41;11.82;;;10.23;;
41512;SDS011;27244;59.940;30.280;2022-12-05T11:48:23;11.25;;;10.05;;
41512;SDS011;27244;59.940;30.280;2022-12-05T11:51:04;11.63;;;10.40;;
41512;SDS011;27244;59.940;30.280;2022-12-05T11:53:46;12.23;;;10.32;;
41512;SDS011;27244;59.940;30.280;2022-12-05T11:56:27;10.50;;;9.25;;
41512;SDS011;27244;59.940;30.280;2022-12-05T12:02:19;14.30;;;9.80;;
41512;SDS011;27244;59.940;30.280;2022-12-05T12:04:59;13.45;;;9.52;;
41512;SDS011;27244;59.940;30.280;2022-12-05T12:07:42;11.82;;;10.43;;
41512;SDS011;27244;59.940;30.280;2022-12-05T12:10:19;14.02;;;9.02;;
41512;SDS011;27244;59.940;30.280;2022-12-05T12:12:54;10.20;;;8.70;;
41512;SDS011;27244;59.940;30.280;2022-12-05T12:15:43;10.05;;;8.32;;
41512;SDS011;27244;59.940;30.280;2022-12-05T12:18:23;10.80;;;8.30;;
41512;SDS011;27244;59.940;30.280;2022-12-05T12:21:04;10.98;;;8.70;;
41512;SDS011;27244;59.940;30.280;2022-12-05T12:23:45;9.82;;;8.50;;
41512;SDS011;27244;59.940;30.280;2022-12-05T12:26:24;11.20;;;8.80;;
41512;SDS011;27244;59.940;30.280;2022-12-05T12:29:02;10.93;;;8.40;;
41512;SDS011;27244;59.940;30.280;2022-12-05T12:31:48;9.63;;;7.85;;
41512;SDS011;27244;59.940;30.280;2022-12-05T12:34:36;9.55;;;8.35;;
41512;SDS011;27244;59.940;30.280;2022-12-05T12:37:16;13.90;;;8.45;;
41512;SDS011;27244;59.940;30.280;2022-12-05T12:39:50;10.32;;;7.65;;
41512;SDS011;27244;59.940;30.280;2022-12-05T12:42:22;14.30;;;8.05;;
41512;SDS011;27244;59.940;30.280;2022-12-05T12:45:00;12.52;;;7.72;;
41512;SDS011;27244;59.940;30.280;2022-12-05T12:47:51;13.70;;;8.18;;
41512;SDS011;27244;59.940;30.280;2022-12-05T12:50:29;13.43;;;7.38;;
41512;SDS011;27244;59.940;30.280;2022-12-05T12:53:05;12.00;;;7.47;;
41512;SDS011;27244;59.940;30.280;2022-12-05T12:55:49;13.30;;;7.32;;
41512;SDS011;27244;59.940;30.280;2022-12-05T12:58:27;10.20;;;7.55;;
41512;SDS011;27244;59.940;30.280;2022-12-05T13:01:07;9.15;;;7.43;;
41512;SDS011;27244;59.940;30.280;2022-12-05T13:03:42;8.63;;;6.95;;
41512;SDS011;27244;59.940;30.280;2022-12-05T13:06:22;11.32;;;7.03;;
41512;SDS011;27244;59.940;30.280;2022-12-05T13:09:02;9.60;;;6.80;;
41512;SDS011;27244;59.940;30.280;2022-12-05T13:11:56;9.90;;;6.65;;
41512;SDS011;27244;59.940;30.280;2022-12-05T13:14:30;9.88;;;6.82;;
41512;SDS011;27244;59.940;30.280;2022-12-05T13:17:00;9.80;;;7.22;;
41512;SDS011;27244;59.940;30.280;2022-12-05T13:19:29;11.38;;;6.45;;
41512;SDS011;27244;59.940;30.280;2022-12-05T13:22:03;9.10;;;6.72;;
41512;SDS011;27244;59.940;30.280;2022-12-05T13:24:32;9.35;;;6.65;;
41512;SDS011;27244;59.940;30.280;2022-12-05T13:27:01;7.60;;;6.43;;
41512;SDS011;27244;59.940;30.280;2022-12-05T13:29:32;7.95;;;5.78;;
41512;SDS011;27244;59.940;30.280;2022-12-05T13:32:02;9.75;;;6.60;;
41512;SDS011;27244;59.940;30.280;2022-12-05T13:37:21;6.68;;;5.85;;
41512;SDS011;27244;59.940;30.280;2022-12-05T13:40:21;8.25;;;6.22;;
41512;SDS011;27244;59.940;30.280;2022-12-05T13:43:16;6.90;;;5.97;;
41512;SDS011;27244;59.940;30.280;2022-12-05T13:48:36;7.00;;;6.15;;
41512;SDS011;27244;59.940;30.280;2022-12-05T13:51:08;7.80;;;5.57;;
41512;SDS011;27244;59.940;30.280;2022-12-05T13:53:41;7.25;;;5.28;;
41512;SDS011;27244;59.940;30.280;2022-12-05T13:56:24;7.63;;;5.25;;
41512;SDS011;27244;59.940;30.280;2022-12-05T13:58:56;6.95;;;5.50;;
41512;SDS011;27244;59.940;30.280;2022-12-05T14:01:46;8.57;;;5.70;;
41512;SDS011;27244;59.940;30.280;2022-12-05T14:04:42;6.10;;;5.50;;
41512;SDS011;27244;59.940;30.280;2022-12-05T14:10:07;6.05;;;5.45;;
41512;SDS011;27244;59.940;30.280;2022-12-05T14:12:45;6.47;;;5.40;;
41512;SDS011;27244;59.940;30.280;2022-12-05T14:15:27;7.93;;;5.78;;
41512;SDS011;27244;59.940;30.280;2022-12-05T14:20:30;5.90;;;5.22;;
41512;SDS011;27244;59.940;30.280;2022-12-05T14:23:13;5.68;;;5.00;;
41512;SDS011;27244;59.940;30.280;2022-12-05T14:25:58;6.43;;;4.90;;
41512;SDS011;27244;59.940;30.280;2022-12-05T14:28:47;5.88;;;4.85;;
41512;SDS011;27244;59.940;30.280;2022-12-05T14:31:29;6.72;;;5.80;;
41512;SDS011;27244;59.940;30.280;2022-12-05T14:34:12;5.82;;;5.22;;
41512;SDS011;27244;59.940;30.280;2022-12-05T14:36:56;5.75;;;4.90;;
41512;SDS011;27244;59.940;30.280;2022-12-05T14:39:38;8.15;;;6.28;;
41512;SDS011;27244;59.940;30.280;2022-12-05T14:42:18;6.93;;;5.55;;
41512;SDS011;27244;59.940;30.280;2022-12-05T14:44:49;6.90;;;6.20;;
41512;SDS011;27244;59.940;30.280;2022-12-05T14:47:26;6.68;;;5.65;;
41512;SDS011;27244;59.940;30.280;2022-12-05T14:49:57;7.78;;;6.95;;
41512;SDS011;27244;59.940;30.280;2022-12-05T14:52:41;8.18;;;7.38;;
41512;SDS011;27244;59.940;30.280;2022-12-05T14:55:10;8.45;;;7.55;;
41512;SDS011;27244;59.940;30.280;2022-12-05T14:57:43;10.07;;;9.00;;
41512;SDS011;27244;59.940;30.280;2022-12-05T15:00:16;9.75;;;8.35;;
41512;SDS011;27244;59.940;30.280;2022-12-05T15:02:50;8.93;;;8.02;;
41512;SDS011;27244;59.940;30.280;2022-12-05T15:05:21;8.75;;;7.93;;
41512;SDS011;27244;59.940;30.280;2022-12-05T15:07:53;9.00;;;8.15;;
41512;SDS011;27244;59.940;30.280;2022-12-05T15:10:26;10.10;;;9.05;;
41512;SDS011;27244;59.940;30.280;2022-12-05T15:12:58;9.63;;;8.63;;
41512;SDS011;27244;59.940;30.280;2022-12-05T15:15:30;10.90;;;9.80;;
41512;SDS011;27244;59.940;30.280;2022-12-05T15:18:08;11.27;;;9.98;;
41512;SDS011;27244;59.940;30.280;2022-12-05T15:20:53;10.90;;;9.80;;
41512;SDS011;27244;59.940;30.280;2022-12-05T15:23:45;10.15;;;9.15;;